KDIK/DIK METAR and TAF weather

Enter ICAO airport designator
Station Type Date Time Source
KDIK METAR 2020/07/03 11:56 UTC NOAA

KDIK 031156Z AUTO 11010KT 10SM OVC085 16/14 A3008 RMK AO2 LTG DSNT N AND E SLP177 70004 T01610144 10167 20139 53016


Station Type Date Time Source
KDIK Decoded METAR 2020/07/03 11:56 UTC NOAA

THEODORE ROOSEVELT REGIONAL, ND, United States (KDIK) 46-48N 102-48W 788M
Jul 03, 2020 - 07:56 AM EDT / 2020.07.03 1156 UTC
Wind: from the ESE (110 degrees) at 12 MPH (10 KT):0
Visibility: 10 mile(s):0
Sky conditions: overcast
Weather: Lightning observed
Temperature: 61.0 F (16.1 C)
Dew Point: 57.9 F (14.4 C)
Relative Humidity: 89%
Pressure (altimeter): 30.08 in. Hg (1018 hPa)
Pressure tendency: 0.05 inches (1.6 hPa) higher than three hours ago
ob: KDIK 031156Z AUTO 11010KT 10SM OVC085 16/14 A3008 RMK AO2 LTG DSNT N AND E SLP177 70004 T01610144 10167 20139 53016
cycle: 12

Station Type Date Time Source
KDIK TAF 2020/07/03 12:24 UTC NOAA

KDIK 031120Z 0312/0412 10005KT P6SM FEW080 SCT150
FM031800 12011G19KT P6SM SCT090
FM040000 11010KT P6SM FEW060 FEW200
FM040500 14006KT P6SM VCTS FEW060CB SCT150
FM041000 09007KT P6SM SCT070 BKN150

Example: see airport list